Terminal Aerodrome Forecast
Issued by NWS

Home | Current Version | Previous Version | Text Only | Print | Product List | Glossary On
Versions: 1 2 3 4 5 6 7 8 9 10 11 12 13 14 15 16 17 18 19 20 21 22 23 24 25 26 27 28
000
FTUS41 KBOX 302331
TAFBED
TAF
KBED 302331Z 3100/3124 19007KT P6SM SCT045 BKN250
     FM310600 21006KT P6SM BKN010
     FM311100 21007KT 6SM BR BKN200
     FM311400 22008KT P6SM BKN025
     FM311800 22011KT P6SM BKN045=

USA.gov is the U.S. government's official web portal to all federal, state and local government web resources and services.